Tsukasa — JD3561 — position and weather

sailwx.info

Track history (hours):
 
Tides and Currents Weather Stations Pressure Air Temp Water Temp Dewpoint Dewpoint Depression Visibility Wind Speed Wind Dir Waves Ship Positions

Tsukasa

Last reported at 2017-Nov-20 00:30 UTC. Time now 2017-Nov-22 09:22 UTC.
Position N 35°31' E 139°50'.

Length 104 m; draft 5.8 m.

Type: Tanker. MMSI: 431004957.

Date/timePositionNaut miles runAvg speedWind from/ knotsBaromVisibWave heightAir tempDewpointWater temp
2017-Nov-20 00:30N 35°31' E 139°50'0 0.0
2017-Nov-20 00:00N 35°31' E 139°50'0 0.0
2017-Nov-19 23:30N 35°31' E 139°50'0 0.0
2017-Nov-19 23:00N 35°31' E 139°50'0 0.0
2017-Nov-19 22:30N 35°31' E 139°50'0 0.0
2017-Nov-19 22:00N 35°31' E 139°50'0 0.0
2017-Nov-19 21:27N 35°31' E 139°50'0 0.1
2017-Nov-19 20:57N 35°31' E 139°50'0 0.0
2017-Nov-19 20:30N 35°31' E 139°50'0 0.0
2017-Nov-19 20:00N 35°31' E 139°50'0 0.1
2017-Nov-19 19:30N 35°31' E 139°51'0 0.0
2017-Nov-19 19:00N 35°31' E 139°51'0 0.0
2017-Nov-19 18:30N 35°31' E 139°51'0 0.0
2017-Nov-19 18:00N 35°31' E 139°51'0 0.1
2017-Nov-19 17:30N 35°31' E 139°50'0 0.0
2017-Nov-19 17:00N 35°31' E 139°50'0 0.1
2017-Nov-19 16:30N 35°31' E 139°50'0 0.0
2017-Nov-19 16:00N 35°31' E 139°50'0 0.0
2017-Nov-19 15:30N 35°31' E 139°50'0 0.0
2017-Nov-19 15:00N 35°31' E 139°50'0 0.0
2017-Nov-19 14:30N 35°31' E 139°50'0 0.0
2017-Nov-19 14:00N 35°31' E 139°50'0 0.1
2017-Nov-19 13:30N 35°31' E 139°51'0 0.0
2017-Nov-19 13:00N 35°31' E 139°51'0 0.0
2017-Nov-19 12:30N 35°31' E 139°51'0 0.0
2017-Nov-19 12:00N 35°31' E 139°51'0 0.0
2017-Nov-19 11:30N 35°31' E 139°51'0 0.1
2017-Nov-19 11:00N 35°31' E 139°50'1 2.8
2017-Nov-19 10:30N 35°31' E 139°52'713.5
2017-Nov-19 10:00N 35°29' E 140°00'1 0.1
2017-Nov-19 05:06N 35°29' E 140°01'0 0.7
2017-Nov-19 04:55N 35°29' E 140°01'2 1.7
2017-Nov-19 03:33N 35°30' E 139°58'0 0.2
2017-Nov-19 03:30N 35°30' E 139°58'3 6.7
2017-Nov-19 03:00N 35°30' E 139°54'5 7.7
2017-Nov-19 02:20N 35°32' E 139°48'0 0.0
2017-Nov-19 01:59N 35°32' E 139°48'0 0.0
2017-Nov-19 01:29N 35°32' E 139°48'0 0.0
2017-Nov-19 00:59N 35°32' E 139°48'0 0.0
2017-Nov-19 00:26N 35°32' E 139°48'0 0.0
2017-Nov-18 23:59N 35°32' E 139°48'0 0.0
2017-Nov-18 23:29N 35°32' E 139°48'0 0.0
2017-Nov-18 22:56N 35°32' E 139°48'0 0.2
2017-Nov-18 22:30N 35°32' E 139°48'2 3.0
2017-Nov-18 22:00N 35°31' E 139°49'1 1.5
2017-Nov-18 21:27N 35°31' E 139°50'0 0.0
2017-Nov-18 21:00N 35°31' E 139°50'0 0.0
2017-Nov-18 20:30N 35°31' E 139°50'0 0.0
2017-Nov-18 19:57N 35°31' E 139°50'0 0.0
2017-Nov-18 19:27N 35°31' E 139°50'0 0.0
2017-Nov-18 19:00N 35°31' E 139°50'0 0.0
2017-Nov-18 18:30N 35°31' E 139°50'0 0.0
2017-Nov-18 18:00N 35°31' E 139°50'0 0.0
2017-Nov-18 17:30N 35°31' E 139°50'0 0.0
2017-Nov-18 17:00N 35°31' E 139°50'0 0.0
2017-Nov-18 16:30N 35°31' E 139°50'0 0.0
2017-Nov-18 16:00N 35°31' E 139°50'0 0.0
2017-Nov-18 15:30N 35°31' E 139°50'0 0.0
2017-Nov-18 15:00N 35°31' E 139°50'0 0.0
2017-Nov-18 14:30N 35°31' E 139°50'0 0.4
2017-Nov-18 13:56N 35°31' E 139°50'511.8
2017-Nov-18 13:30N 35°27' E 139°46'611.3
2017-Nov-18 13:00N 35°23' E 139°41'1 2.6
2017-Nov-18 12:28N 35°25' E 139°39'0 0.0
2017-Nov-18 11:58N 35°25' E 139°39'0 0.0
2017-Nov-18 11:28N 35°25' E 139°39'0 0.0
2017-Nov-18 10:58N 35°25' E 139°39'0 0.0
2017-Nov-18 10:28N 35°25' E 139°39'0 0.0
2017-Nov-18 09:58N 35°25' E 139°39'0 0.0
2017-Nov-18 09:25N 35°25' E 139°39'0 0.0
2017-Nov-18 08:58N 35°25' E 139°39'0 0.0
2017-Nov-18 08:28N 35°25' E 139°39'0 0.0
2017-Nov-18 07:58N 35°25' E 139°39'0 0.0
2017-Nov-18 07:28N 35°25' E 139°39'0 0.0
2017-Nov-18 06:58N 35°25' E 139°39'0 0.0
2017-Nov-18 06:30N 35°25' E 139°39'0 0.0
2017-Nov-18 06:00N 35°25' E 139°39'0 0.0
2017-Nov-18 05:30N 35°25' E 139°39'0 0.6
2017-Nov-18 05:00N 35°24' E 139°40'4 7.1
2017-Nov-18 04:30N 35°26' E 139°44'612.3
2017-Nov-18 04:00N 35°30' E 139°49'2 3.0
2017-Nov-18 03:28N 35°32' E 139°48'0 0.0
2017-Nov-18 03:01N 35°32' E 139°48'0 0.0
2017-Nov-18 02:28N 35°32' E 139°48'0 0.0
2017-Nov-18 02:01N 35°32' E 139°48'0 0.0
2017-Nov-18 01:31N 35°32' E 139°48'0 0.0
2017-Nov-18 01:01N 35°32' E 139°48'0 0.0
2017-Nov-18 00:31N 35°32' E 139°48'0 0.1
2017-Nov-17 23:55N 35°32' E 139°48'1 3.0
2017-Nov-17 23:30N 35°31' E 139°49'1 2.6
2017-Nov-17 23:00N 35°30' E 139°49'0 0.1
2017-Nov-17 22:30N 35°30' E 139°49'0 0.1
2017-Nov-17 22:00N 35°30' E 139°49'0 0.1
2017-Nov-17 21:15N 35°30' E 139°49'0 0.0
2017-Nov-17 20:54N 35°30' E 139°49'0 0.0
2017-Nov-17 20:30N 35°30' E 139°49'0 0.0
2017-Nov-17 20:00N 35°30' E 139°49'0 0.0
2017-Nov-17 19:30N 35°30' E 139°49'0 0.0
2017-Nov-17 19:00N 35°30' E 139°49'0 0.0
2017-Nov-17 18:27N 35°30' E 139°49'0 0.0
2017-Nov-17 18:00N 35°30' E 139°49'0 0.0
2017-Nov-17 17:30N 35°30' E 139°49'0 0.0
2017-Nov-17 16:57N 35°30' E 139°49'0 0.0
2017-Nov-17 16:30N 35°30' E 139°49'0 0.0
2017-Nov-17 16:00N 35°30' E 139°49'0 0.0
2017-Nov-17 15:30N 35°30' E 139°49'0 0.0
2017-Nov-17 15:00N 35°30' E 139°49'0 0.0
2017-Nov-17 14:30N 35°30' E 139°49'0 0.0
2017-Nov-17 14:00N 35°30' E 139°49'0 0.1
2017-Nov-17 13:27N 35°30' E 139°49'0 0.0
2017-Nov-17 12:57N 35°30' E 139°49'0 0.1
2017-Nov-17 12:29N 35°30' E 139°49'3 6.5
2017-Nov-17 12:01N 35°28' E 139°47'612.8
2017-Nov-17 11:30N 35°23' E 139°41'2 3.5
2017-Nov-17 10:59N 35°25' E 139°39'0 0.0
2017-Nov-17 10:29N 35°25' E 139°39'0 0.0
2017-Nov-17 09:59N 35°25' E 139°39'0 0.0
2017-Nov-17 09:29N 35°25' E 139°39'0 0.0
2017-Nov-17 08:59N 35°25' E 139°39'0 0.0
2017-Nov-17 08:29N 35°25' E 139°39'0 0.0
2017-Nov-17 07:59N 35°25' E 139°39'0 0.0
2017-Nov-17 07:29N 35°25' E 139°39'0 0.0
2017-Nov-17 06:59N 35°25' E 139°39'0 0.0
2017-Nov-17 06:29N 35°25' E 139°39'0 0.0
2017-Nov-17 05:59N 35°25' E 139°39'0 0.0
2017-Nov-17 05:29N 35°25' E 139°39'0 0.0
2017-Nov-17 04:59N 35°25' E 139°39'0 0.0
2017-Nov-17 04:29N 35°25' E 139°39'0 0.0
2017-Nov-17 03:59N 35°25' E 139°39'0 0.7
2017-Nov-17 03:30N 35°24' E 139°40'4 8.1
2017-Nov-17 03:01N 35°26' E 139°44'612.2
2017-Nov-17 02:31N 35°31' E 139°48'1 1.0
2017-Nov-17 02:00N 35°32' E 139°48'0 0.0
2017-Nov-17 01:30N 35°32' E 139°48'0 0.0
2017-Nov-17 01:00N 35°32' E 139°48'0 0.0
2017-Nov-17 00:29N 35°32' E 139°48'0 0.0
2017-Nov-17 00:00N 35°32' E 139°48'0 0.0
2017-Nov-16 23:30N 35°32' E 139°48'0 0.0
2017-Nov-16 22:59N 35°32' E 139°48'0 0.1
2017-Nov-16 22:30N 35°32' E 139°48'2 4.3
2017-Nov-16 22:00N 35°31' E 139°51'0 0.1
2017-Nov-16 16:29N 35°31' E 139°51'0 0.0
2017-Nov-16 15:58N 35°31' E 139°51'0 0.1
2017-Nov-16 14:37N 35°31' E 139°51'0 1.4
2017-Nov-16 14:30N 35°31' E 139°51'611.9
2017-Nov-16 14:00N 35°30' E 139°59'2 0.3
2017-Nov-16 06:48N 35°29' E 140°01'1 2.5
2017-Nov-16 06:30N 35°29' E 140°00'5 0.1
2017-Nov-14 18:58N 35°34' E 139°58'3 6.1
2017-Nov-14 18:27N 35°32' E 139°56'614.1
2017-Nov-14 18:00N 35°27' E 139°50'713.4
2017-Nov-14 17:30N 35°22' E 139°45'611.7
2017-Nov-14 17:00N 35°16' E 139°46'612.9
2017-Nov-14 16:30N 35°10' E 139°46'714.0
2017-Nov-14 16:00N 35°03' E 139°44'713.2
2017-Nov-14 15:31N 34°57' E 139°41'5 8.9
2017-Nov-14 15:00N 34°54' E 139°45'611.6
2017-Nov-14 14:30N 34°52' E 139°52'712.4
2017-Nov-14 13:55N 34°54' E 140°01'38 1.0
2017-Nov-13 01:29N 35°30' E 139°50'0 0.0
2017-Nov-13 00:53N 35°30' E 139°50'0 0.0
2017-Nov-13 00:26N 35°30' E 139°50'0 0.0
2017-Nov-12 23:53N 35°30' E 139°50'0 0.0
2017-Nov-12 23:29N 35°30' E 139°50'0 0.0
2017-Nov-12 22:23N 35°30' E 139°50'0 0.0
2017-Nov-12 21:59N 35°30' E 139°50'0 0.0
2017-Nov-12 21:23N 35°30' E 139°50'0 0.0
2017-Nov-12 20:59N 35°30' E 139°50'0 0.0
2017-Nov-12 20:11N 35°30' E 139°50'0 0.0
2017-Nov-12 19:59N 35°30' E 139°50'0 0.0
2017-Nov-12 19:20N 35°30' E 139°50'0 0.0
2017-Nov-12 18:56N 35°30' E 139°50'0 0.0
2017-Nov-12 18:29N 35°30' E 139°50'0 0.0
2017-Nov-12 17:59N 35°30' E 139°50'0 0.0
2017-Nov-12 17:29N 35°30' E 139°50'0 0.0
2017-Nov-12 16:59N 35°30' E 139°50'0 0.0
2017-Nov-12 16:29N 35°30' E 139°50'0 0.0
2017-Nov-12 15:59N 35°30' E 139°50'0 0.0
2017-Nov-12 15:26N 35°30' E 139°50'0 0.0
2017-Nov-12 14:59N 35°30' E 139°50'0 0.2
2017-Nov-12 14:29N 35°31' E 139°50'0 0.1
2017-Nov-12 13:59N 35°31' E 139°50'0 0.0
2017-Nov-12 13:29N 35°31' E 139°50'0 0.0
2017-Nov-12 12:59N 35°31' E 139°50'0 0.0
2017-Nov-12 12:29N 35°31' E 139°50'0 0.0
2017-Nov-12 11:59N 35°31' E 139°50'0 0.4
2017-Nov-12 11:30N 35°30' E 139°50'612.0
2017-Nov-12 11:01N 35°27' E 139°44'5 9.3
2017-Nov-12 10:30N 35°24' E 139°40'0 0.6
2017-Nov-12 10:00N 35°25' E 139°39'0 0.1
2017-Nov-12 09:30N 35°25' E 139°39'0 0.0
2017-Nov-12 08:57N 35°25' E 139°39'0 0.0
2017-Nov-12 08:30N 35°25' E 139°39'0 0.0
2017-Nov-12 08:00N 35°25' E 139°39'0 0.0
2017-Nov-12 07:30N 35°25' E 139°39'0 0.0
2017-Nov-12 07:00N 35°25' E 139°39'0 0.0
2017-Nov-12 06:30N 35°25' E 139°39'0 0.0
2017-Nov-12 06:00N 35°25' E 139°39'0 0.0
2017-Nov-12 05:30N 35°25' E 139°39'0 0.0
2017-Nov-12 05:00N 35°25' E 139°39'0 0.0
2017-Nov-12 04:27N 35°25' E 139°39'0 0.0
2017-Nov-12 04:00N 35°25' E 139°39'0 0.0
2017-Nov-12 03:30N 35°25' E 139°39'0 0.0
2017-Nov-12 03:00N 35°25' E 139°39'0 0.0
2017-Nov-12 02:30N 35°25' E 139°39'1 1.9
2017-Nov-12 02:00N 35°24' E 139°40'5 9.6
2017-Nov-12 01:30N 35°26' E 139°45'611.9
2017-Nov-12 01:00N 35°31' E 139°50'0 0.5
2017-Nov-12 00:30N 35°31' E 139°50'0 0.0
2017-Nov-12 00:00N 35°31' E 139°50'0 0.0
2017-Nov-11 23:30N 35°31' E 139°50'0 0.1
2017-Nov-11 22:42N 35°31' E 139°50'0 0.0
2017-Nov-11 22:24N 35°31' E 139°50'0 0.0
2017-Nov-11 22:00N 35°31' E 139°50'0 0.0
2017-Nov-11 21:30N 35°31' E 139°50'0 0.0
2017-Nov-11 21:00N 35°31' E 139°50'0 0.0
2017-Nov-11 20:30N 35°31' E 139°50'0 0.0
2017-Nov-11 19:54N 35°31' E 139°50'0 0.0
2017-Nov-11 19:24N 35°31' E 139°50'0 0.0
2017-Nov-11 19:00N 35°31' E 139°50'0 0.0
2017-Nov-11 18:24N 35°31' E 139°50'0 0.0
2017-Nov-11 18:00N 35°31' E 139°50'0 0.0
2017-Nov-11 17:30N 35°31' E 139°50'0 0.0
2017-Nov-11 17:00N 35°31' E 139°50'0 0.0
2017-Nov-11 16:24N 35°31' E 139°50'0 0.0
2017-Nov-11 15:57N 35°31' E 139°50'0 0.0
2017-Nov-11 15:30N 35°31' E 139°50'0 0.0
2017-Nov-11 15:00N 35°31' E 139°50'0 0.0
2017-Nov-11 14:29N 35°31' E 139°50'0 0.0
2017-Nov-11 14:00N 35°31' E 139°50'0 0.0
2017-Nov-11 13:30N 35°31' E 139°50'0 0.0
2017-Nov-11 13:00N 35°31' E 139°50'0 0.0
2017-Nov-11 12:29N 35°31' E 139°50'0 0.0
2017-Nov-11 11:59N 35°31' E 139°50'0 0.0
2017-Nov-11 11:30N 35°31' E 139°50'0 0.0
2017-Nov-11 10:29N 35°31' E 139°50'0 0.0
2017-Nov-11 09:59N 35°31' E 139°50'0 0.0
2017-Nov-11 09:30N 35°31' E 139°50'0 0.0
2017-Nov-11 09:00N 35°31' E 139°50'0 0.0
2017-Nov-11 08:30N 35°31' E 139°50'0 0.0
2017-Nov-11 07:59N 35°31' E 139°50'0 0.0
2017-Nov-11 07:30N 35°31' E 139°50'0 0.0
2017-Nov-11 06:57N 35°31' E 139°50'0 0.0
2017-Nov-11 06:30N 35°31' E 139°50'0 0.0
2017-Nov-11 06:00N 35°31' E 139°50'0 0.0
2017-Nov-11 05:30N 35°31' E 139°50'0 0.0
2017-Nov-11 04:54N 35°31' E 139°50'0 0.0
2017-Nov-11 04:26N 35°31' E 139°50'0 0.0
2017-Nov-11 04:00N 35°31' E 139°50'0 0.1
2017-Nov-11 03:29N 35°31' E 139°50'0 0.1
2017-Nov-11 02:52N 35°31' E 139°50'2 6.1
2017-Nov-11 02:31N 35°32' E 139°48'0 0.5
2017-Nov-11 01:53N 35°32' E 139°48'0 0.0
2017-Nov-11 01:20N 35°32' E 139°48'0 0.0
2017-Nov-11 00:47N 35°32' E 139°48'0 0.0
2017-Nov-11 00:29N 35°32' E 139°48'0 0.0
2017-Nov-10 23:59N 35°32' E 139°48'0 0.0
2017-Nov-10 23:29N 35°32' E 139°48'0 0.0
2017-Nov-10 22:59N 35°32' E 139°48'0 0.1
2017-Nov-10 22:30N 35°32' E 139°48'2 3.2
2017-Nov-10 21:57N 35°31' E 139°50'1 1.2
2017-Nov-10 21:10N 35°31' E 139°51'0 0.0
2017-Nov-10 20:52N 35°31' E 139°51'0 0.0
2017-Nov-10 20:29N 35°31' E 139°51'0 0.0
2017-Nov-10 19:55N 35°31' E 139°51'0 0.0
2017-Nov-10 19:27N 35°31' E 139°51'0 0.1
2017-Nov-10 18:59N 35°31' E 139°51'0 0.0
2017-Nov-10 18:29N 35°31' E 139°51'0 0.0
2017-Nov-10 18:00N 35°31' E 139°51'0 0.1
2017-Nov-10 17:31N 35°31' E 139°51'0 0.0
2017-Nov-10 17:00N 35°31' E 139°51'0 0.0
2017-Nov-10 16:28N 35°31' E 139°51'0 0.1
2017-Nov-10 16:00N 35°31' E 139°51'0 0.0
2017-Nov-10 15:15N 35°31' E 139°51'0 0.1
2017-Nov-10 14:52N 35°31' E 139°51'0 0.0
2017-Nov-10 14:31N 35°31' E 139°51'0 0.0
2017-Nov-10 14:01N 35°31' E 139°51'0 0.0
2017-Nov-10 13:30N 35°31' E 139°51'0 0.1
2017-Nov-10 13:00N 35°31' E 139°51'0 0.1
2017-Nov-10 12:31N 35°31' E 139°51'0 0.0
2017-Nov-10 12:01N 35°31' E 139°51'0 0.0
2017-Nov-10 11:30N 35°31' E 139°51'0 0.0
2017-Nov-10 11:00N 35°31' E 139°51'0 0.0
2017-Nov-10 10:25N 35°31' E 139°51'0 0.0
2017-Nov-10 10:00N 35°31' E 139°51'0 0.0
2017-Nov-10 09:27N 35°31' E 139°51'0 0.0
2017-Nov-10 09:01N 35°31' E 139°51'0 0.1
2017-Nov-10 08:30N 35°31' E 139°51'0 0.0
2017-Nov-10 08:00N 35°31' E 139°51'0 0.0
2017-Nov-10 07:31N 35°31' E 139°51'0 0.0
2017-Nov-10 06:57N 35°31' E 139°51'0 0.1
2017-Nov-10 06:30N 35°31' E 139°51'5 9.8
2017-Nov-10 06:00N 35°30' E 139°57'  
Track history (hours):
 
Tides and Currents Weather Stations Pressure Air Temp Water Temp Dewpoint Dewpoint Depression Visibility Wind Speed Wind Dir Waves Ship Positions

Tsukasa

Last reported at 2017-Nov-20 00:30 UTC. Time now 2017-Nov-22 09:22 UTC.
Position N 35°31' E 139°50'.

Length 104 m; draft 5.8 m.

Type: Tanker. MMSI: 431004957.

Date/timePositionNaut miles runAvg speedWind from/ knotsBaromVisibWave heightAir tempDewpointWater temp
2017-Nov-20 00:30N 35°31' E 139°50'0 0.0
2017-Nov-20 00:00N 35°31' E 139°50'0 0.0
2017-Nov-19 23:30N 35°31' E 139°50'0 0.0
2017-Nov-19 23:00N 35°31' E 139°50'0 0.0
2017-Nov-19 22:30N 35°31' E 139°50'0 0.0
2017-Nov-19 22:00N 35°31' E 139°50'0 0.0
2017-Nov-19 21:27N 35°31' E 139°50'0 0.1
2017-Nov-19 20:57N 35°31' E 139°50'0 0.0
2017-Nov-19 20:30N 35°31' E 139°50'0 0.0
2017-Nov-19 20:00N 35°31' E 139°50'0 0.1
2017-Nov-19 19:30N 35°31' E 139°51'0 0.0
2017-Nov-19 19:00N 35°31' E 139°51'0 0.0
2017-Nov-19 18:30N 35°31' E 139°51'0 0.0
2017-Nov-19 18:00N 35°31' E 139°51'0 0.1
2017-Nov-19 17:30N 35°31' E 139°50'0 0.0
2017-Nov-19 17:00N 35°31' E 139°50'0 0.1
2017-Nov-19 16:30N 35°31' E 139°50'0 0.0
2017-Nov-19 16:00N 35°31' E 139°50'0 0.0
2017-Nov-19 15:30N 35°31' E 139°50'0 0.0
2017-Nov-19 15:00N 35°31' E 139°50'0 0.0
2017-Nov-19 14:30N 35°31' E 139°50'0 0.0
2017-Nov-19 14:00N 35°31' E 139°50'0 0.1
2017-Nov-19 13:30N 35°31' E 139°51'0 0.0
2017-Nov-19 13:00N 35°31' E 139°51'0 0.0
2017-Nov-19 12:30N 35°31' E 139°51'0 0.0
2017-Nov-19 12:00N 35°31' E 139°51'0 0.0
2017-Nov-19 11:30N 35°31' E 139°51'0 0.1
2017-Nov-19 11:00N 35°31' E 139°50'1 2.8
2017-Nov-19 10:30N 35°31' E 139°52'713.5
2017-Nov-19 10:00N 35°29' E 140°00'1 0.1
2017-Nov-19 05:06N 35°29' E 140°01'0 0.7
2017-Nov-19 04:55N 35°29' E 140°01'2 1.7
2017-Nov-19 03:33N 35°30' E 139°58'0 0.2
2017-Nov-19 03:30N 35°30' E 139°58'3 6.7
2017-Nov-19 03:00N 35°30' E 139°54'5 7.7
2017-Nov-19 02:20N 35°32' E 139°48'0 0.0
2017-Nov-19 01:59N 35°32' E 139°48'0 0.0
2017-Nov-19 01:29N 35°32' E 139°48'0 0.0
2017-Nov-19 00:59N 35°32' E 139°48'0 0.0
2017-Nov-19 00:26N 35°32' E 139°48'0 0.0
2017-Nov-18 23:59N 35°32' E 139°48'0 0.0
2017-Nov-18 23:29N 35°32' E 139°48'0 0.0
2017-Nov-18 22:56N 35°32' E 139°48'0 0.2
2017-Nov-18 22:30N 35°32' E 139°48'2 3.0
2017-Nov-18 22:00N 35°31' E 139°49'1 1.5
2017-Nov-18 21:27N 35°31' E 139°50'0 0.0
2017-Nov-18 21:00N 35°31' E 139°50'0 0.0
2017-Nov-18 20:30N 35°31' E 139°50'0 0.0
2017-Nov-18 19:57N 35°31' E 139°50'0 0.0
2017-Nov-18 19:27N 35°31' E 139°50'0 0.0
2017-Nov-18 19:00N 35°31' E 139°50'0 0.0
2017-Nov-18 18:30N 35°31' E 139°50'0 0.0
2017-Nov-18 18:00N 35°31' E 139°50'0 0.0
2017-Nov-18 17:30N 35°31' E 139°50'0 0.0
2017-Nov-18 17:00N 35°31' E 139°50'0 0.0
2017-Nov-18 16:30N 35°31' E 139°50'0 0.0
2017-Nov-18 16:00N 35°31' E 139°50'0 0.0
2017-Nov-18 15:30N 35°31' E 139°50'0 0.0
2017-Nov-18 15:00N 35°31' E 139°50'0 0.0
2017-Nov-18 14:30N 35°31' E 139°50'0 0.4
2017-Nov-18 13:56N 35°31' E 139°50'511.8
2017-Nov-18 13:30N 35°27' E 139°46'611.3
2017-Nov-18 13:00N 35°23' E 139°41'1 2.6
2017-Nov-18 12:28N 35°25' E 139°39'0 0.0
2017-Nov-18 11:58N 35°25' E 139°39'0 0.0
2017-Nov-18 11:28N 35°25' E 139°39'0 0.0
2017-Nov-18 10:58N 35°25' E 139°39'0 0.0
2017-Nov-18 10:28N 35°25' E 139°39'0 0.0
2017-Nov-18 09:58N 35°25' E 139°39'0 0.0
2017-Nov-18 09:25N 35°25' E 139°39'0 0.0
2017-Nov-18 08:58N 35°25' E 139°39'0 0.0
2017-Nov-18 08:28N 35°25' E 139°39'0 0.0
2017-Nov-18 07:58N 35°25' E 139°39'0 0.0
2017-Nov-18 07:28N 35°25' E 139°39'0 0.0
2017-Nov-18 06:58N 35°25' E 139°39'0 0.0
2017-Nov-18 06:30N 35°25' E 139°39'0 0.0
2017-Nov-18 06:00N 35°25' E 139°39'0 0.0
2017-Nov-18 05:30N 35°25' E 139°39'0 0.6
2017-Nov-18 05:00N 35°24' E 139°40'4 7.1
2017-Nov-18 04:30N 35°26' E 139°44'612.3
2017-Nov-18 04:00N 35°30' E 139°49'2 3.0
2017-Nov-18 03:28N 35°32' E 139°48'0 0.0
2017-Nov-18 03:01N 35°32' E 139°48'0 0.0
2017-Nov-18 02:28N 35°32' E 139°48'0 0.0
2017-Nov-18 02:01N 35°32' E 139°48'0 0.0
2017-Nov-18 01:31N 35°32' E 139°48'0 0.0
2017-Nov-18 01:01N 35°32' E 139°48'0 0.0
2017-Nov-18 00:31N 35°32' E 139°48'0 0.1
2017-Nov-17 23:55N 35°32' E 139°48'1 3.0
2017-Nov-17 23:30N 35°31' E 139°49'1 2.6
2017-Nov-17 23:00N 35°30' E 139°49'0 0.1
2017-Nov-17 22:30N 35°30' E 139°49'0 0.1
2017-Nov-17 22:00N 35°30' E 139°49'0 0.1
2017-Nov-17 21:15N 35°30' E 139°49'0 0.0
2017-Nov-17 20:54N 35°30' E 139°49'0 0.0
2017-Nov-17 20:30N 35°30' E 139°49'0 0.0
2017-Nov-17 20:00N 35°30' E 139°49'0 0.0
2017-Nov-17 19:30N 35°30' E 139°49'0 0.0
2017-Nov-17 19:00N 35°30' E 139°49'0 0.0
2017-Nov-17 18:27N 35°30' E 139°49'0 0.0
2017-Nov-17 18:00N 35°30' E 139°49'0 0.0
2017-Nov-17 17:30N 35°30' E 139°49'0 0.0
2017-Nov-17 16:57N 35°30' E 139°49'0 0.0
2017-Nov-17 16:30N 35°30' E 139°49'0 0.0
2017-Nov-17 16:00N 35°30' E 139°49'0 0.0
2017-Nov-17 15:30N 35°30' E 139°49'0 0.0
2017-Nov-17 15:00N 35°30' E 139°49'0 0.0
2017-Nov-17 14:30N 35°30' E 139°49'0 0.0
2017-Nov-17 14:00N 35°30' E 139°49'0 0.1
2017-Nov-17 13:27N 35°30' E 139°49'0 0.0
2017-Nov-17 12:57N 35°30' E 139°49'0 0.1
2017-Nov-17 12:29N 35°30' E 139°49'3 6.5
2017-Nov-17 12:01N 35°28' E 139°47'612.8
2017-Nov-17 11:30N 35°23' E 139°41'2 3.5
2017-Nov-17 10:59N 35°25' E 139°39'0 0.0
2017-Nov-17 10:29N 35°25' E 139°39'0 0.0
2017-Nov-17 09:59N 35°25' E 139°39'0 0.0
2017-Nov-17 09:29N 35°25' E 139°39'0 0.0
2017-Nov-17 08:59N 35°25' E 139°39'0 0.0
2017-Nov-17 08:29N 35°25' E 139°39'0 0.0
2017-Nov-17 07:59N 35°25' E 139°39'0 0.0
2017-Nov-17 07:29N 35°25' E 139°39'0 0.0
2017-Nov-17 06:59N 35°25' E 139°39'0 0.0
2017-Nov-17 06:29N 35°25' E 139°39'0 0.0
2017-Nov-17 05:59N 35°25' E 139°39'0 0.0
2017-Nov-17 05:29N 35°25' E 139°39'0 0.0
2017-Nov-17 04:59N 35°25' E 139°39'0 0.0
2017-Nov-17 04:29N 35°25' E 139°39'0 0.0
2017-Nov-17 03:59N 35°25' E 139°39'0 0.7
2017-Nov-17 03:30N 35°24' E 139°40'4 8.1
2017-Nov-17 03:01N 35°26' E 139°44'612.2
2017-Nov-17 02:31N 35°31' E 139°48'1 1.0
2017-Nov-17 02:00N 35°32' E 139°48'0 0.0
2017-Nov-17 01:30N 35°32' E 139°48'0 0.0
2017-Nov-17 01:00N 35°32' E 139°48'0 0.0
2017-Nov-17 00:29N 35°32' E 139°48'0 0.0
2017-Nov-17 00:00N 35°32' E 139°48'0 0.0
2017-Nov-16 23:30N 35°32' E 139°48'0 0.0
2017-Nov-16 22:59N 35°32' E 139°48'0 0.1
2017-Nov-16 22:30N 35°32' E 139°48'2 4.3
2017-Nov-16 22:00N 35°31' E 139°51'0 0.1
2017-Nov-16 16:29N 35°31' E 139°51'0 0.0
2017-Nov-16 15:58N 35°31' E 139°51'0 0.1
2017-Nov-16 14:37N 35°31' E 139°51'0 1.4
2017-Nov-16 14:30N 35°31' E 139°51'611.9
2017-Nov-16 14:00N 35°30' E 139°59'2 0.3
2017-Nov-16 06:48N 35°29' E 140°01'1 2.5
2017-Nov-16 06:30N 35°29' E 140°00'5 0.1
2017-Nov-14 18:58N 35°34' E 139°58'3 6.1
2017-Nov-14 18:27N 35°32' E 139°56'614.1
2017-Nov-14 18:00N 35°27' E 139°50'713.4
2017-Nov-14 17:30N 35°22' E 139°45'611.7
2017-Nov-14 17:00N 35°16' E 139°46'612.9
2017-Nov-14 16:30N 35°10' E 139°46'714.0
2017-Nov-14 16:00N 35°03' E 139°44'713.2
2017-Nov-14 15:31N 34°57' E 139°41'5 8.9
2017-Nov-14 15:00N 34°54' E 139°45'611.6
2017-Nov-14 14:30N 34°52' E 139°52'712.4
2017-Nov-14 13:55N 34°54' E 140°01'38 1.0
2017-Nov-13 01:29N 35°30' E 139°50'0 0.0
2017-Nov-13 00:53N 35°30' E 139°50'0 0.0
2017-Nov-13 00:26N 35°30' E 139°50'0 0.0
2017-Nov-12 23:53N 35°30' E 139°50'0 0.0
2017-Nov-12 23:29N 35°30' E 139°50'0 0.0
2017-Nov-12 22:23N 35°30' E 139°50'0 0.0
2017-Nov-12 21:59N 35°30' E 139°50'0 0.0
2017-Nov-12 21:23N 35°30' E 139°50'0 0.0
2017-Nov-12 20:59N 35°30' E 139°50'0 0.0
2017-Nov-12 20:11N 35°30' E 139°50'0 0.0
2017-Nov-12 19:59N 35°30' E 139°50'0 0.0
2017-Nov-12 19:20N 35°30' E 139°50'0 0.0
2017-Nov-12 18:56N 35°30' E 139°50'0 0.0
2017-Nov-12 18:29N 35°30' E 139°50'0 0.0
2017-Nov-12 17:59N 35°30' E 139°50'0 0.0
2017-Nov-12 17:29N 35°30' E 139°50'0 0.0
2017-Nov-12 16:59N 35°30' E 139°50'0 0.0
2017-Nov-12 16:29N 35°30' E 139°50'0 0.0
2017-Nov-12 15:59N 35°30' E 139°50'0 0.0
2017-Nov-12 15:26N 35°30' E 139°50'0 0.0
2017-Nov-12 14:59N 35°30' E 139°50'0 0.2
2017-Nov-12 14:29N 35°31' E 139°50'0 0.1
2017-Nov-12 13:59N 35°31' E 139°50'0 0.0
2017-Nov-12 13:29N 35°31' E 139°50'0 0.0
2017-Nov-12 12:59N 35°31' E 139°50'0 0.0
2017-Nov-12 12:29N 35°31' E 139°50'0 0.0
2017-Nov-12 11:59N 35°31' E 139°50'0 0.4
2017-Nov-12 11:30N 35°30' E 139°50'612.0
2017-Nov-12 11:01N 35°27' E 139°44'5 9.3
2017-Nov-12 10:30N 35°24' E 139°40'0 0.6
2017-Nov-12 10:00N 35°25' E 139°39'0 0.1
2017-Nov-12 09:30N 35°25' E 139°39'0 0.0
2017-Nov-12 08:57N 35°25' E 139°39'0 0.0
2017-Nov-12 08:30N 35°25' E 139°39'0 0.0
2017-Nov-12 08:00N 35°25' E 139°39'0 0.0
2017-Nov-12 07:30N 35°25' E 139°39'0 0.0
2017-Nov-12 07:00N 35°25' E 139°39'0 0.0
2017-Nov-12 06:30N 35°25' E 139°39'0 0.0
2017-Nov-12 06:00N 35°25' E 139°39'0 0.0
2017-Nov-12 05:30N 35°25' E 139°39'0 0.0
2017-Nov-12 05:00N 35°25' E 139°39'0 0.0
2017-Nov-12 04:27N 35°25' E 139°39'0 0.0
2017-Nov-12 04:00N 35°25' E 139°39'0 0.0
2017-Nov-12 03:30N 35°25' E 139°39'0 0.0
2017-Nov-12 03:00N 35°25' E 139°39'0 0.0
2017-Nov-12 02:30N 35°25' E 139°39'1 1.9
2017-Nov-12 02:00N 35°24' E 139°40'5 9.6
2017-Nov-12 01:30N 35°26' E 139°45'611.9
2017-Nov-12 01:00N 35°31' E 139°50'0 0.5
2017-Nov-12 00:30N 35°31' E 139°50'0 0.0
2017-Nov-12 00:00N 35°31' E 139°50'0 0.0
2017-Nov-11 23:30N 35°31' E 139°50'0 0.1
2017-Nov-11 22:42N 35°31' E 139°50'0 0.0
2017-Nov-11 22:24N 35°31' E 139°50'0 0.0
2017-Nov-11 22:00N 35°31' E 139°50'0 0.0
2017-Nov-11 21:30N 35°31' E 139°50'0 0.0
2017-Nov-11 21:00N 35°31' E 139°50'0 0.0
2017-Nov-11 20:30N 35°31' E 139°50'0 0.0
2017-Nov-11 19:54N 35°31' E 139°50'0 0.0
2017-Nov-11 19:24N 35°31' E 139°50'0 0.0
2017-Nov-11 19:00N 35°31' E 139°50'0 0.0
2017-Nov-11 18:24N 35°31' E 139°50'0 0.0
2017-Nov-11 18:00N 35°31' E 139°50'0 0.0
2017-Nov-11 17:30N 35°31' E 139°50'0 0.0
2017-Nov-11 17:00N 35°31' E 139°50'0 0.0
2017-Nov-11 16:24N 35°31' E 139°50'0 0.0
2017-Nov-11 15:57N 35°31' E 139°50'0 0.0
2017-Nov-11 15:30N 35°31' E 139°50'0 0.0
2017-Nov-11 15:00N 35°31' E 139°50'0 0.0
2017-Nov-11 14:29N 35°31' E 139°50'0 0.0
2017-Nov-11 14:00N 35°31' E 139°50'0 0.0
2017-Nov-11 13:30N 35°31' E 139°50'0 0.0
2017-Nov-11 13:00N 35°31' E 139°50'0 0.0
2017-Nov-11 12:29N 35°31' E 139°50'0 0.0
2017-Nov-11 11:59N 35°31' E 139°50'0 0.0
2017-Nov-11 11:30N 35°31' E 139°50'0 0.0
2017-Nov-11 10:29N 35°31' E 139°50'0 0.0
2017-Nov-11 09:59N 35°31' E 139°50'0 0.0
2017-Nov-11 09:30N 35°31' E 139°50'0 0.0
2017-Nov-11 09:00N 35°31' E 139°50'0 0.0
2017-Nov-11 08:30N 35°31' E 139°50'0 0.0
2017-Nov-11 07:59N 35°31' E 139°50'0 0.0
2017-Nov-11 07:30N 35°31' E 139°50'0 0.0
2017-Nov-11 06:57N 35°31' E 139°50'0 0.0
2017-Nov-11 06:30N 35°31' E 139°50'0 0.0
2017-Nov-11 06:00N 35°31' E 139°50'0 0.0
2017-Nov-11 05:30N 35°31' E 139°50'0 0.0
2017-Nov-11 04:54N 35°31' E 139°50'0 0.0
2017-Nov-11 04:26N 35°31' E 139°50'0 0.0
2017-Nov-11 04:00N 35°31' E 139°50'0 0.1
2017-Nov-11 03:29N 35°31' E 139°50'0 0.1
2017-Nov-11 02:52N 35°31' E 139°50'2 6.1
2017-Nov-11 02:31N 35°32' E 139°48'0 0.5
2017-Nov-11 01:53N 35°32' E 139°48'0 0.0
2017-Nov-11 01:20N 35°32' E 139°48'0 0.0
2017-Nov-11 00:47N 35°32' E 139°48'0 0.0
2017-Nov-11 00:29N 35°32' E 139°48'0 0.0
2017-Nov-10 23:59N 35°32' E 139°48'0 0.0
2017-Nov-10 23:29N 35°32' E 139°48'0 0.0
2017-Nov-10 22:59N 35°32' E 139°48'0 0.1
2017-Nov-10 22:30N 35°32' E 139°48'2 3.2
2017-Nov-10 21:57N 35°31' E 139°50'1 1.2
2017-Nov-10 21:10N 35°31' E 139°51'0 0.0
2017-Nov-10 20:52N 35°31' E 139°51'0 0.0
2017-Nov-10 20:29N 35°31' E 139°51'0 0.0
2017-Nov-10 19:55N 35°31' E 139°51'0 0.0
2017-Nov-10 19:27N 35°31' E 139°51'0 0.1
2017-Nov-10 18:59N 35°31' E 139°51'0 0.0
2017-Nov-10 18:29N 35°31' E 139°51'0 0.0
2017-Nov-10 18:00N 35°31' E 139°51'0 0.1
2017-Nov-10 17:31N 35°31' E 139°51'0 0.0
2017-Nov-10 17:00N 35°31' E 139°51'0 0.0
2017-Nov-10 16:28N 35°31' E 139°51'0 0.1
2017-Nov-10 16:00N 35°31' E 139°51'0 0.0
2017-Nov-10 15:15N 35°31' E 139°51'0 0.1
2017-Nov-10 14:52N 35°31' E 139°51'0 0.0
2017-Nov-10 14:31N 35°31' E 139°51'0 0.0
2017-Nov-10 14:01N 35°31' E 139°51'0 0.0
2017-Nov-10 13:30N 35°31' E 139°51'0 0.1
2017-Nov-10 13:00N 35°31' E 139°51'0 0.1
2017-Nov-10 12:31N 35°31' E 139°51'0 0.0
2017-Nov-10 12:01N 35°31' E 139°51'0 0.0
2017-Nov-10 11:30N 35°31' E 139°51'0 0.0
2017-Nov-10 11:00N 35°31' E 139°51'0 0.0
2017-Nov-10 10:25N 35°31' E 139°51'0 0.0
2017-Nov-10 10:00N 35°31' E 139°51'0 0.0
2017-Nov-10 09:27N 35°31' E 139°51'0 0.0
2017-Nov-10 09:01N 35°31' E 139°51'0 0.1
2017-Nov-10 08:30N 35°31' E 139°51'0 0.0
2017-Nov-10 08:00N 35°31' E 139°51'0 0.0
2017-Nov-10 07:31N 35°31' E 139°51'0 0.0
2017-Nov-10 06:57N 35°31' E 139°51'0 0.1
2017-Nov-10 06:30N 35°31' E 139°51'5 9.8
2017-Nov-10 06:00N 35°30' E 139°57'  

Dump ship's entire track history